This is the latest recevied weather packets stored in our database for station/object EW6851. If no packets are shown the sender has not sent any weather packets the latest 10 day(s).
| Time | Temp. | Humidity | Pressure | Rain* | Wind** | Luminosity | Snow |
|---|---|---|---|---|---|---|---|
| 1778320909 | 22.78° C | 67% | 1016.6 hPa | 0 mm | - | 856 W/m² | - |
| 1778320309 | 22.22° C | 68% | 1016.6 hPa | 0 mm | - | 847 W/m² | - |
| 1778320012 | 22.22° C | 68% | 1016.6 hPa | 0 mm | - | 833 W/m² | - |
| 1778319412 | 21.67° C | 70% | 1016.7 hPa | 0 mm | - | 835 W/m² | - |
| 1778318815 | 21.67° C | 70% | 1016.7 hPa | 0 mm | - | 828 W/m² | - |
| 1778318509 | 21.67° C | 71% | 1016.9 hPa | 0 mm | - | 824 W/m² | - |
| 1778318218 | 21.67° C | 71% | 1016.9 hPa | 0 mm | - | 837 W/m² | - |
| 1778317915 | 21.67° C | 72% | 1016.9 hPa | 0 mm | - | 824 W/m² | - |
| 1778317615 | 21.11° C | 73% | 1017 hPa | 0 mm | - | 904 W/m² | - |
| 1778316412 | 20.56° C | 78% | 1017 hPa | 0 mm | - | 909 W/m² | - |
| 1778315509 | 20° C | 79% | 1017.1 hPa | 0 mm | - | 295 W/m² | - |
| 1778315209 | 20° C | 80% | 1017.1 hPa | 0 mm | - | 302 W/m² | - |
| 1778314912 | 20° C | 80% | 1017.1 hPa | 0 mm | - | 297 W/m² | - |
| 1778314012 | 20° C | 81% | 1017.1 hPa | 0 mm | - | 246 W/m² | - |
| 1778313712 | 20° C | 81% | 1017.2 hPa | 0 mm | - | 248 W/m² | - |
| 1778313118 | 20° C | 81% | 1017.1 hPa | 0 mm | - | 211 W/m² | - |
| 1778308309 | 18.89° C | 84% | 1016.9 hPa | 0 mm | - | 111 W/m² | - |
| 1778307409 | 18.89° C | 83% | 1016.8 hPa | 0 mm | - | 121 W/m² | - |
| 1778307115 | 18.89° C | 83% | 1016.7 hPa | 0 mm | - | 97 W/m² | - |
| 1778306815 | 18.89° C | 83% | 1016.6 hPa | 0 mm | - | 69 W/m² | - |
| 1778305609 | 18.89° C | 83% | 1016.5 hPa | 0 mm | - | 32 W/m² | - |
| 1778305012 | 18.89° C | 83% | 1016.5 hPa | 0 mm | - | 32 W/m² | - |
| 1778304709 | 18.89° C | 83% | 1016.4 hPa | 0 mm | - | 21 W/m² | - |
| 1778304409 | 18.89° C | 83% | 1016.4 hPa | 0 mm | - | 18 W/m² | - |
| 1778303809 | 18.89° C | 83% | 1016.2 hPa | 0 mm | - | 28 W/m² | - |
* Rain latest hour (hover to see other rain measurements)
** Current wind speed in m/s (hover to see current wind gust speed)